createdAt,value
2019-01-20T00:01:39.803Z,54.67
2019-01-20T00:04:06.372Z,46.00
2019-01-20T00:06:32.917Z,46.87
2019-01-20T00:08:59.635Z,51.07
2019-01-20T00:11:26.294Z,47.90
2019-01-20T00:13:52.966Z,45.20
2019-01-20T00:16:19.485Z,48.30
2019-01-20T00:18:46.187Z,46.10
2019-01-20T00:21:12.950Z,45.90
2019-01-20T00:23:39.490Z,48.60
2019-01-20T00:26:06.160Z,47.77
2019-01-20T00:28:32.665Z,43.23
2019-01-20T00:30:59.325Z,46.00
2019-01-20T00:33:25.850Z,41.83
2019-01-20T00:35:52.517Z,48.97
2019-01-20T00:38:19.044Z,45.10
2019-01-20T00:40:45.682Z,42.10
2019-01-20T00:43:12.118Z,44.03
2019-01-20T00:45:38.691Z,47.80
2019-01-20T00:48:05.412Z,51.10
2019-01-20T00:50:31.972Z,45.80
2019-01-20T00:52:58.493Z,44.27
2019-01-20T00:55:25.176Z,49.00
2019-01-20T00:57:51.932Z,42.17
2019-01-20T01:00:24.665Z,47.13
2019-01-20T01:02:51.532Z,44.67
2019-01-20T01:05:19.211Z,50.03
2019-01-20T01:07:45.929Z,53.40
2019-01-20T01:10:13.009Z,52.07
2019-01-20T01:12:39.590Z,55.00
2019-01-20T01:15:08.544Z,55.00
2019-01-20T01:17:35.137Z,51.63
2019-01-20T01:20:03.660Z,46.37
2019-01-20T01:22:30.241Z,54.80
2019-01-20T01:24:56.817Z,49.73
2019-01-20T01:27:23.330Z,49.33
2019-01-20T01:29:49.900Z,56.07
2019-01-20T01:32:16.425Z,51.13
2019-01-20T01:34:43.029Z,52.10
2019-01-20T01:37:09.556Z,54.90
2019-01-20T01:39:36.109Z,50.60
2019-01-20T01:42:02.968Z,51.87
2019-01-20T01:44:29.520Z,48.33
2019-01-20T01:46:56.095Z,48.97
2019-01-20T01:49:22.669Z,46.33
2019-01-20T01:51:49.333Z,84.60
2019-01-20T01:54:16.187Z,51.33
2019-01-20T01:56:42.709Z,54.57
2019-01-20T01:59:09.226Z,53.40
2019-01-20T02:01:35.743Z,43.30
2019-01-20T02:04:02.297Z,44.40
2019-01-20T02:06:28.927Z,52.03
2019-01-20T02:08:55.502Z,50.37
2019-01-20T02:11:22.030Z,49.63
2019-01-20T02:13:48.600Z,49.53
2019-01-20T02:16:15.168Z,51.30
2019-01-20T02:18:41.693Z,53.23
2019-01-20T02:21:08.319Z,50.37
2019-01-20T02:23:34.981Z,51.37
2019-01-20T02:26:01.643Z,54.13
2019-01-20T02:28:28.292Z,50.00
2019-01-20T02:30:54.857Z,52.13
2019-01-20T02:33:21.426Z,52.93
2019-01-20T02:35:47.962Z,52.03
2019-01-20T02:38:14.533Z,49.30
2019-01-20T02:40:41.049Z,60.77
2019-01-20T02:43:07.725Z,53.60
2019-01-20T02:45:34.260Z,49.03
2019-01-20T02:48:00.840Z,54.17
2019-01-20T02:50:27.361Z,50.67
2019-01-20T02:52:54.021Z,46.63
2019-01-20T02:55:20.803Z,46.20
2019-01-20T02:57:47.438Z,48.17
2019-01-20T03:00:19.032Z,46.73
2019-01-20T03:02:47.708Z,52.00
2019-01-20T03:05:15.338Z,54.70
2019-01-20T03:07:43.676Z,50.60
2019-01-20T03:10:12.045Z,49.60
2019-01-20T03:12:38.658Z,55.13
2019-01-20T03:15:08.487Z,55.93
2019-01-20T03:17:35.105Z,63.63
2019-01-20T03:20:04.336Z,56.20
2019-01-20T03:22:30.902Z,48.97
2019-01-20T03:24:57.532Z,49.40
2019-01-20T03:27:24.301Z,50.83
2019-01-20T03:29:50.962Z,54.90
2019-01-20T03:32:17.736Z,57.83
2019-01-20T03:34:44.489Z,53.53
2019-01-20T03:37:11.116Z,46.27
2019-01-20T03:39:37.911Z,54.47
2019-01-20T03:42:11.532Z,52.07
2019-01-20T03:44:32.983Z,53.30
2019-01-20T03:46:59.632Z,52.33
2019-01-20T03:49:26.300Z,54.27
2019-01-20T03:51:52.877Z,49.43
2019-01-20T03:54:19.403Z,56.87
2019-01-20T03:56:45.977Z,52.17
2019-01-20T03:59:12.600Z,49.90
2019-01-20T04:01:39.268Z,46.40
2019-01-20T04:04:05.890Z,49.20
2019-01-20T04:06:32.561Z,43.70
2019-01-20T04:08:59.098Z,51.40
2019-01-20T04:11:25.738Z,43.40
2019-01-20T04:13:52.252Z,43.80
2019-01-20T04:16:18.781Z,44.23
2019-01-20T04:18:45.445Z,48.17
2019-01-20T04:21:11.909Z,41.90
2019-01-20T04:23:38.479Z,39.17
2019-01-20T04:26:05.092Z,44.07
2019-01-20T04:28:31.794Z,38.97
2019-01-20T04:30:58.356Z,37.47
2019-01-20T04:33:24.917Z,39.40
2019-01-20T04:35:51.481Z,38.87
2019-01-20T04:38:17.993Z,40.60
2019-01-20T04:40:44.616Z,41.50
2019-01-20T04:43:11.289Z,41.20
2019-01-20T04:45:37.811Z,38.30
2019-01-20T04:48:04.586Z,42.93
2019-01-20T04:50:31.177Z,41.30
2019-01-20T04:52:57.850Z,41.33
2019-01-20T04:55:24.471Z,40.60
2019-01-20T04:57:52.809Z,37.67
2019-01-20T05:00:21.401Z,42.57
2019-01-20T05:02:47.916Z,42.87
2019-01-20T05:05:15.719Z,37.90
2019-01-20T05:07:42.364Z,41.73
2019-01-20T05:10:11.606Z,40.17
2019-01-20T05:12:38.124Z,35.90
2019-01-20T05:15:08.205Z,36.43
2019-01-20T05:17:34.856Z,34.17
2019-01-20T05:20:02.488Z,41.00
2019-01-20T05:22:29.058Z,37.10
2019-01-20T05:24:55.782Z,39.90
2019-01-20T05:27:22.432Z,37.83
2019-01-20T05:29:50.684Z,40.97
2019-01-20T05:32:17.243Z,40.10
2019-01-20T05:34:43.862Z,39.83
2019-01-20T05:37:10.517Z,41.40
2019-01-20T05:39:36.938Z,43.33
2019-01-20T05:42:03.585Z,35.53
2019-01-20T05:44:30.108Z,41.63
2019-01-20T05:46:56.671Z,39.57
2019-01-20T05:49:23.192Z,36.43
2019-01-20T05:51:49.811Z,35.20
2019-01-20T05:54:16.570Z,41.47
2019-01-20T05:56:43.292Z,38.87
2019-01-20T05:59:09.845Z,32.80
2019-01-20T06:01:36.371Z,38.07
2019-01-20T06:04:03.249Z,36.77
2019-01-20T06:06:29.993Z,34.77
2019-01-20T06:08:56.522Z,31.97
2019-01-20T06:11:23.039Z,34.20
2019-01-20T06:13:49.700Z,41.57
2019-01-20T06:16:16.370Z,32.87
2019-01-20T06:18:43.633Z,34.10
2019-01-20T06:21:10.538Z,38.10
2019-01-20T06:23:37.206Z,37.83
2019-01-20T06:26:03.936Z,36.80
2019-01-20T06:28:30.577Z,51.83
2019-01-20T06:30:57.109Z,48.60
2019-01-20T06:33:23.665Z,39.93
2019-01-20T06:35:50.177Z,37.20
2019-01-20T06:38:16.736Z,32.97
2019-01-20T06:40:43.360Z,36.40
2019-01-20T06:43:10.012Z,32.97
2019-01-20T06:45:36.629Z,29.40
2019-01-20T06:48:03.462Z,38.83
2019-01-20T06:50:29.997Z,33.60
2019-01-20T06:52:56.620Z,35.57
2019-01-20T06:55:23.304Z,41.37
2019-01-20T06:57:49.815Z,45.20
2019-01-20T07:00:19.477Z,45.37
2019-01-20T07:02:47.999Z,40.90
2019-01-20T07:05:14.589Z,42.63
2019-01-20T07:07:41.218Z,38.60
2019-01-20T07:10:10.869Z,43.33
2019-01-20T07:12:37.486Z,44.50
2019-01-20T07:15:10.392Z,39.70
2019-01-20T07:17:37.132Z,39.03
2019-01-20T07:20:06.989Z,38.40
2019-01-20T07:22:33.662Z,37.87
2019-01-20T07:25:00.262Z,42.37
2019-01-20T07:27:26.776Z,38.43
2019-01-20T07:29:53.334Z,35.07
2019-01-20T07:32:19.853Z,34.30
2019-01-20T07:34:46.508Z,34.63
2019-01-20T07:37:13.032Z,25.30
2019-01-20T07:39:39.590Z,31.90
2019-01-20T07:42:06.232Z,23.70
2019-01-20T07:44:32.885Z,27.43
2019-01-20T07:46:59.509Z,24.27
2019-01-20T07:49:26.169Z,26.27
2019-01-20T07:51:52.686Z,26.03
2019-01-20T07:54:19.234Z,25.57
2019-01-20T07:56:45.861Z,29.00
2019-01-20T07:59:12.550Z,31.03
2019-01-20T08:01:39.086Z,28.40
2019-01-20T08:04:05.739Z,36.73
2019-01-20T08:06:32.279Z,31.27
2019-01-20T08:08:58.939Z,34.33
2019-01-20T08:11:25.553Z,30.40
2019-01-20T08:13:52.105Z,33.43
2019-01-20T08:16:18.756Z,27.00
2019-01-20T08:18:45.305Z,32.90
2019-01-20T08:21:11.936Z,25.03
2019-01-20T08:23:38.569Z,25.60
2019-01-20T08:26:05.257Z,27.50
2019-01-20T08:28:31.779Z,28.43
2019-01-20T08:30:58.338Z,25.13
2019-01-20T08:33:24.865Z,28.37
2019-01-20T08:35:51.420Z,24.27
2019-01-20T08:38:18.049Z,23.80
2019-01-20T08:40:44.636Z,27.93
2019-01-20T08:43:11.266Z,25.10
2019-01-20T08:46:02.726Z,23.70
2019-01-20T08:48:29.254Z,24.70
2019-01-20T08:50:56.407Z,36.67
2019-01-20T08:53:23.042Z,26.50
2019-01-20T08:55:49.590Z,27.07
2019-01-20T08:58:16.317Z,25.93
2019-01-20T09:00:42.867Z,30.20
2019-01-20T09:03:09.468Z,25.37
2019-01-20T09:05:36.122Z,25.17
2019-01-20T09:08:03.144Z,22.07
2019-01-20T09:10:31.424Z,26.33
2019-01-20T09:12:59.929Z,23.23
2019-01-20T09:15:27.523Z,21.13
2019-01-20T09:17:54.152Z,26.43
2019-01-20T09:20:21.109Z,24.60
2019-01-20T09:22:47.625Z,25.87
2019-01-20T09:25:16.091Z,28.83
2019-01-20T09:27:42.607Z,26.60
2019-01-20T09:30:20.512Z,24.90
2019-01-20T09:32:47.253Z,26.43
2019-01-20T09:35:14.232Z,23.40
2019-01-20T09:37:40.864Z,23.47
2019-01-20T09:40:10.403Z,31.67
2019-01-20T09:42:37.541Z,25.27
2019-01-20T09:45:07.979Z,41.00
2019-01-20T09:47:34.600Z,35.07
2019-01-20T09:50:01.482Z,32.77
2019-01-20T09:52:29.751Z,28.67
2019-01-20T09:54:56.523Z,35.70
2019-01-20T09:57:23.193Z,36.20
2019-01-20T09:59:51.193Z,34.43
2019-01-20T10:02:17.984Z,29.57
2019-01-20T10:04:45.500Z,31.77
2019-01-20T10:07:12.264Z,34.40
2019-01-20T10:09:38.815Z,32.77
2019-01-20T10:12:05.440Z,33.70
2019-01-20T10:14:32.009Z,36.53
2019-01-20T10:16:58.540Z,39.80
2019-01-20T10:19:25.108Z,41.27
2019-01-20T10:21:51.653Z,38.90
2019-01-20T10:24:18.215Z,41.50
2019-01-20T10:26:44.785Z,38.87
2019-01-20T10:29:11.313Z,33.90
2019-01-20T10:31:37.877Z,42.57
2019-01-20T10:34:04.558Z,42.50
2019-01-20T10:36:31.226Z,39.00
2019-01-20T10:38:57.818Z,37.87
2019-01-20T10:41:24.440Z,38.40
2019-01-20T10:43:51.027Z,42.50
2019-01-20T10:46:17.600Z,39.00
2019-01-20T10:48:44.269Z,37.00
2019-01-20T10:51:11.041Z,36.97
2019-01-20T10:53:37.906Z,39.03
2019-01-20T10:56:04.484Z,38.70
2019-01-20T10:58:31.004Z,36.60
2019-01-20T11:00:57.570Z,46.70
2019-01-20T11:03:24.287Z,48.13
2019-01-20T11:05:50.849Z,49.10
2019-01-20T11:08:17.377Z,38.10
2019-01-20T11:10:43.913Z,45.77
2019-01-20T11:13:10.486Z,47.63
2019-01-20T11:15:37.056Z,40.93
2019-01-20T11:18:03.815Z,38.63
2019-01-20T11:20:30.450Z,43.70
2019-01-20T11:22:57.019Z,44.63
2019-01-20T11:25:27.369Z,44.67
2019-01-20T11:27:55.748Z,40.30
2019-01-20T11:30:22.685Z,36.57
2019-01-20T11:32:49.481Z,38.80
2019-01-20T11:35:18.306Z,36.67
2019-01-20T11:37:45.577Z,36.23
2019-01-20T11:40:14.007Z,37.90
2019-01-20T11:42:41.385Z,40.73
2019-01-20T11:45:22.792Z,42.40
2019-01-20T11:47:49.539Z,41.70
2019-01-20T11:50:16.529Z,39.73
2019-01-20T11:52:43.670Z,39.07
2019-01-20T11:55:13.642Z,38.23
2019-01-20T11:57:40.216Z,41.33
2019-01-20T12:00:13.142Z,38.13
2019-01-20T12:02:39.709Z,36.30
2019-01-20T12:05:09.447Z,38.50
2019-01-20T12:07:36.002Z,37.47
2019-01-20T12:10:05.557Z,36.77
2019-01-20T12:12:32.382Z,37.00
2019-01-20T12:14:59.050Z,32.07
2019-01-20T12:17:25.530Z,38.63
2019-01-20T12:19:52.206Z,36.93
2019-01-20T12:22:18.738Z,31.50
2019-01-20T12:24:45.305Z,34.50
2019-01-20T12:27:11.979Z,35.13
2019-01-20T12:29:38.605Z,34.07
2019-01-20T12:32:05.284Z,33.20
2019-01-20T12:34:32.020Z,33.20
2019-01-20T12:36:58.641Z,33.73
2019-01-20T12:39:25.202Z,30.57
2019-01-20T12:41:51.838Z,33.10
2019-01-20T12:44:18.357Z,31.93
2019-01-20T12:46:44.877Z,34.70
2019-01-20T12:49:11.528Z,32.10
2019-01-20T12:51:38.097Z,36.63
2019-01-20T12:54:04.617Z,36.00
2019-01-20T12:56:31.291Z,34.30
2019-01-20T12:58:57.806Z,38.67
2019-01-20T13:01:24.389Z,36.53
2019-01-20T13:03:51.048Z,39.63
2019-01-20T13:06:17.565Z,36.33
2019-01-20T13:08:44.328Z,36.30
2019-01-20T13:11:10.998Z,36.73
2019-01-20T13:13:37.605Z,33.10
2019-01-20T13:16:04.157Z,34.67
2019-01-20T13:18:30.714Z,36.40
2019-01-20T13:20:57.274Z,35.00
2019-01-20T13:23:24.137Z,35.03
2019-01-20T13:25:50.816Z,35.20
2019-01-20T13:28:17.429Z,34.40
2019-01-20T13:30:43.957Z,32.17
2019-01-20T13:33:10.612Z,38.90
2019-01-20T13:35:37.138Z,36.40
2019-01-20T13:38:09.426Z,39.90
2019-01-20T13:40:42.600Z,33.40
2019-01-20T13:43:09.123Z,41.30
2019-01-20T13:45:35.704Z,33.97
2019-01-20T13:48:02.334Z,34.10
2019-01-20T13:50:28.849Z,38.07
2019-01-20T13:52:55.431Z,36.33
2019-01-20T13:55:21.964Z,34.30
2019-01-20T13:57:48.552Z,38.03
2019-01-20T14:00:18.307Z,34.70
2019-01-20T14:02:45.037Z,29.10
2019-01-20T14:05:11.656Z,26.90
2019-01-20T14:07:38.243Z,31.63
2019-01-20T14:10:14.121Z,37.10
2019-01-20T14:12:40.890Z,31.20
2019-01-20T14:15:10.469Z,32.77
2019-01-20T14:17:38.465Z,34.73
2019-01-20T14:20:14.831Z,35.00
2019-01-20T14:22:41.401Z,37.17
2019-01-20T14:25:11.277Z,31.50
2019-01-20T14:27:37.853Z,34.27
2019-01-20T14:30:08.330Z,33.67
2019-01-20T14:32:34.885Z,35.70
2019-01-20T14:35:01.475Z,36.33
2019-01-20T14:37:28.024Z,35.03
2019-01-20T14:39:54.751Z,37.40
2019-01-20T14:42:21.417Z,38.80
2019-01-20T14:44:49.748Z,36.00
2019-01-20T14:47:16.521Z,36.37
2019-01-20T14:49:43.650Z,33.07
2019-01-20T14:52:10.777Z,32.67
2019-01-20T14:54:38.051Z,31.50
2019-01-20T14:57:04.800Z,35.17
2019-01-20T14:59:32.420Z,35.23
2019-01-20T15:01:59.088Z,32.63
2019-01-20T15:04:26.310Z,30.50
2019-01-20T15:06:53.777Z,34.50
2019-01-20T15:09:20.553Z,32.27
2019-01-20T15:11:47.166Z,35.97
2019-01-20T15:14:13.856Z,35.57
2019-01-20T15:16:40.476Z,33.63
2019-01-20T15:19:07.151Z,34.90
2019-01-20T15:21:33.868Z,28.80
2019-01-20T15:24:01.409Z,35.90
2019-01-20T15:26:28.172Z,28.50
2019-01-20T15:28:54.839Z,32.70
2019-01-20T15:31:21.615Z,28.37
2019-01-20T15:33:48.249Z,29.33
2019-01-20T15:36:15.015Z,35.50
2019-01-20T15:38:41.751Z,31.90
2019-01-20T15:41:08.424Z,45.07
2019-01-20T15:43:35.060Z,34.07
2019-01-20T15:46:02.290Z,37.97
2019-01-20T15:48:28.953Z,34.73
2019-01-20T15:50:55.522Z,35.23
2019-01-20T15:53:22.206Z,40.43
2019-01-20T15:55:48.874Z,35.43
2019-01-20T15:58:15.484Z,38.70
2019-01-20T16:00:43.748Z,39.10
2019-01-20T16:03:10.420Z,35.73
2019-01-20T16:05:37.004Z,32.23
2019-01-20T16:08:03.625Z,29.37
2019-01-20T16:10:30.196Z,35.73
2019-01-20T16:12:56.726Z,35.10
2019-01-20T16:15:26.315Z,32.70
2019-01-20T16:17:54.029Z,30.07
2019-01-20T16:20:22.705Z,36.20
2019-01-20T16:22:50.273Z,31.23
2019-01-20T16:25:26.023Z,33.27
2019-01-20T16:27:52.836Z,35.00
2019-01-20T16:30:22.472Z,33.00
2019-01-20T16:32:49.180Z,38.00
2019-01-20T16:35:15.850Z,34.50
2019-01-20T16:37:44.113Z,37.23
2019-01-20T16:40:19.964Z,38.13
2019-01-20T16:42:47.328Z,33.50
2019-01-20T16:45:16.552Z,34.47
2019-01-20T16:47:43.122Z,32.50
2019-01-20T16:50:18.433Z,37.70
2019-01-20T16:52:45.397Z,32.33
2019-01-20T16:55:13.224Z,44.10
2019-01-20T16:57:39.894Z,39.43
2019-01-20T17:00:13.169Z,35.40
2019-01-20T17:02:39.633Z,37.07
2019-01-20T17:05:08.208Z,35.73
2019-01-20T17:07:34.740Z,32.80
2019-01-20T17:10:01.371Z,31.20
2019-01-20T17:12:27.873Z,35.17
2019-01-20T17:14:54.400Z,32.37
2019-01-20T17:17:21.076Z,31.60
2019-01-20T17:19:49.301Z,30.60
2019-01-20T17:22:15.956Z,32.47
2019-01-20T17:24:42.512Z,34.23
2019-01-20T17:27:09.126Z,33.10
2019-01-20T17:29:35.657Z,38.47
2019-01-20T17:32:03.597Z,36.30
2019-01-20T17:34:30.199Z,37.03
2019-01-20T17:36:56.782Z,34.17
2019-01-20T17:39:23.397Z,35.67
2019-01-20T17:41:50.069Z,35.50
2019-01-20T17:44:16.553Z,34.63
2019-01-20T17:46:43.282Z,36.80
2019-01-20T17:49:09.905Z,36.60
2019-01-20T17:51:37.775Z,34.83
2019-01-20T17:54:04.526Z,35.63
2019-01-20T17:56:32.800Z,38.73
2019-01-20T17:58:59.488Z,34.90
2019-01-20T18:01:26.158Z,33.73
2019-01-20T18:03:52.674Z,32.90
2019-01-20T18:06:20.100Z,33.47
2019-01-20T18:08:46.773Z,38.50
2019-01-20T18:11:13.501Z,30.80
2019-01-20T18:13:40.285Z,38.00
2019-01-20T18:16:07.340Z,46.77
2019-01-20T18:18:33.959Z,39.50
2019-01-20T18:21:01.334Z,33.23
2019-01-20T18:23:28.073Z,36.80
2019-01-20T18:25:54.779Z,42.30
2019-01-20T18:28:21.300Z,31.37
2019-01-20T18:30:47.932Z,28.53
2019-01-20T18:33:14.795Z,28.63
2019-01-20T18:35:41.421Z,29.73
2019-01-20T18:38:08.188Z,30.97
2019-01-20T18:40:34.841Z,29.80
2019-01-20T18:43:01.402Z,25.93
2019-01-20T18:45:30.274Z,65.07
2019-01-20T18:47:57.081Z,31.97
2019-01-20T18:50:25.644Z,39.07
2019-01-20T18:52:52.425Z,22.77
2019-01-20T18:55:19.997Z,35.73
2019-01-20T18:57:46.612Z,37.63
2019-01-20T19:00:17.088Z,33.40
2019-01-20T19:02:43.708Z,25.00
2019-01-20T19:05:13.985Z,31.83
2019-01-20T19:07:42.462Z,26.30
2019-01-20T19:10:14.431Z,27.20
2019-01-20T19:12:41.237Z,25.80
2019-01-20T19:15:11.109Z,24.87
2019-01-20T19:17:37.757Z,28.67
2019-01-20T19:20:08.193Z,32.63
2019-01-20T19:22:34.714Z,30.80
2019-01-20T19:25:04.942Z,29.93
2019-01-20T19:27:31.614Z,25.67
2019-01-20T19:29:58.203Z,25.07
2019-01-20T19:32:24.824Z,27.30
2019-01-20T19:34:51.393Z,27.80
2019-01-20T19:37:18.075Z,29.83
2019-01-20T19:39:50.550Z,27.80
2019-01-20T19:42:13.425Z,28.33
2019-01-20T19:44:39.963Z,32.53
2019-01-20T19:47:06.593Z,27.30
2019-01-20T19:49:33.230Z,33.00
2019-01-20T19:51:59.794Z,29.17
2019-01-20T19:54:26.314Z,29.70
2019-01-20T19:56:53.033Z,34.93
2019-01-20T19:59:19.648Z,34.27
2019-01-20T20:01:46.321Z,30.73
2019-01-20T20:04:12.922Z,30.30
2019-01-20T20:06:39.897Z,31.50
2019-01-20T20:09:10.099Z,35.20
2019-01-20T20:11:36.880Z,30.47
2019-01-20T20:14:03.555Z,34.07
2019-01-20T20:16:30.229Z,28.53
2019-01-20T20:18:56.697Z,32.23
2019-01-20T20:21:23.207Z,34.83
2019-01-20T20:23:49.738Z,47.53
2019-01-20T20:26:16.265Z,37.00
2019-01-20T20:28:42.834Z,48.30
2019-01-20T20:31:09.497Z,29.43
2019-01-20T20:33:36.211Z,30.23
2019-01-20T20:36:03.102Z,33.40
2019-01-20T20:38:29.669Z,28.27
2019-01-20T20:40:56.248Z,29.33
2019-01-20T20:43:22.824Z,32.73
2019-01-20T20:45:49.425Z,31.47
2019-01-20T20:48:16.139Z,31.77
2019-01-20T20:50:42.749Z,33.23
2019-01-20T20:53:09.262Z,36.90
2019-01-20T20:55:35.955Z,36.27
2019-01-20T20:58:03.088Z,31.57
2019-01-20T21:00:33.303Z,26.53
2019-01-20T21:03:02.301Z,31.33
2019-01-20T21:05:28.985Z,27.50
2019-01-20T21:07:55.814Z,32.00
2019-01-20T21:10:22.384Z,37.40
2019-01-20T21:12:49.057Z,31.10
2019-01-20T21:15:15.724Z,35.73
2019-01-20T21:17:48.195Z,32.67
2019-01-20T21:20:13.920Z,36.60
2019-01-20T21:22:40.751Z,32.33
2019-01-20T21:25:09.598Z,32.87
2019-01-20T21:27:36.373Z,31.83
2019-01-20T21:30:06.787Z,31.33
2019-01-20T21:32:33.454Z,31.67
2019-01-20T21:34:59.989Z,30.50
2019-01-20T21:37:26.561Z,33.63
2019-01-20T21:39:53.295Z,28.60
2019-01-20T21:42:19.851Z,31.60
2019-01-20T21:44:46.487Z,31.67
2019-01-20T21:47:13.139Z,28.47
2019-01-20T21:49:39.698Z,34.53
2019-01-20T21:52:06.221Z,33.83
2019-01-20T21:54:32.813Z,40.20
2019-01-20T21:56:59.440Z,32.90
2019-01-20T21:59:26.066Z,35.77
2019-01-20T22:01:52.630Z,32.20
2019-01-20T22:04:19.214Z,32.23
2019-01-20T22:06:45.932Z,33.23
2019-01-20T22:09:12.519Z,37.50
2019-01-20T22:11:40.754Z,36.90
2019-01-20T22:14:07.280Z,44.03
2019-01-20T22:16:33.930Z,38.37
2019-01-20T22:19:00.526Z,35.80
2019-01-20T22:21:27.099Z,36.67
2019-01-20T22:23:53.626Z,33.07
2019-01-20T22:26:20.184Z,29.67
2019-01-20T22:28:46.721Z,34.07
2019-01-20T22:31:13.347Z,40.90
2019-01-20T22:33:39.872Z,36.23
2019-01-20T22:36:06.532Z,37.97
2019-01-20T22:38:32.963Z,36.83
2019-01-20T22:40:59.537Z,34.07
2019-01-20T22:43:26.207Z,35.37
2019-01-20T22:45:52.929Z,40.30
2019-01-20T22:48:19.609Z,39.43
2019-01-20T22:50:46.184Z,42.13
2019-01-20T22:53:12.693Z,33.40
2019-01-20T22:55:39.281Z,34.83
2019-01-20T22:58:06.067Z,55.30
2019-01-20T23:00:41.129Z,38.63
2019-01-20T23:03:07.810Z,36.37
2019-01-20T23:05:36.086Z,36.53
2019-01-20T23:08:02.961Z,38.40
2019-01-20T23:10:31.376Z,39.37
2019-01-20T23:12:57.905Z,36.83
2019-01-20T23:15:24.513Z,36.70
2019-01-20T23:17:51.229Z,35.50
2019-01-20T23:20:17.988Z,39.30
2019-01-20T23:22:44.847Z,43.43
2019-01-20T23:25:11.478Z,37.07
2019-01-20T23:27:38.243Z,34.50
2019-01-20T23:30:11.094Z,35.57
2019-01-20T23:32:39.332Z,31.67
2019-01-20T23:35:06.730Z,42.87
2019-01-20T23:37:33.353Z,39.20
2019-01-20T23:39:59.882Z,36.23
2019-01-20T23:42:26.447Z,35.40
2019-01-20T23:44:52.969Z,39.93
2019-01-20T23:47:19.549Z,32.33
2019-01-20T23:49:46.175Z,38.93
2019-01-20T23:52:12.782Z,36.30
2019-01-20T23:54:39.345Z,35.30
2019-01-20T23:57:05.912Z,36.77
2019-01-20T23:59:32.545Z,28.17
